Time;durP1;ratioP1;P1;durP2;ratioP2;P2;SDS_P1;SDS_P2;PMS_P1;PMS_P2;Temp;Humidity;BMP_temperature;BMP_pressure;BME280_temperature;BME280_humidity;BME280_pressure;Samples;Min_cycle;Max_cycle;Signal;HPM_P1;HPM_P2
2023/07/19 00:00:47;;;;;;;7.05;2.80;;;18.40;99.90;;;;;;5061372;28;20408;-42
2023/07/19 00:03:14;;;;;;;4.53;2.55;;;18.40;99.90;;;;;;5056424;28;20045;-42
2023/07/19 00:05:40;;;;;;;6.07;2.80;;;18.40;99.90;;;;;;5053510;28;20182;-42
2023/07/19 00:08:07;;;;;;;8.80;3.50;;;18.40;99.90;;;;;;5062445;28;20076;-42
2023/07/19 00:10:35;;;;;;;5.97;3.20;;;18.40;99.90;;;;;;5069428;28;20105;-41
2023/07/19 00:13:02;;;;;;;6.53;3.42;;;18.40;99.90;;;;;;5066236;28;20080;-42
2023/07/19 00:15:30;;;;;;;5.55;2.88;;;18.30;99.90;;;;;;5062524;28;20477;-43
2023/07/19 00:17:56;;;;;;;7.88;2.92;;;18.30;99.90;;;;;;5066518;28;20136;-42
2023/07/19 00:20:23;;;;;;;6.80;2.53;;;18.20;99.90;;;;;;5061841;28;20146;-42
2023/07/19 00:22:50;;;;;;;5.15;2.50;;;18.20;99.90;;;;;;5062215;28;20056;-42
2023/07/19 00:25:17;;;;;;;5.93;2.53;;;18.30;99.90;;;;;;5072854;28;20504;-42
2023/07/19 00:27:48;;;;;;;5.13;2.67;;;18.20;99.90;;;;;;5072040;28;20052;-42
2023/07/19 00:30:15;;;;;;;5.43;2.85;;;18.20;99.90;;;;;;5063269;28;20049;-42
2023/07/19 00:32:42;;;;;;;9.82;2.88;;;18.10;99.90;;;;;;5063526;28;20147;-41
2023/07/19 00:35:10;;;;;;;6.32;2.80;;;18.10;99.90;;;;;;5067410;28;20048;-42
2023/07/19 00:37:37;;;;;;;6.28;2.85;;;18.10;99.90;;;;;;5068423;28;20041;-42
2023/07/19 00:40:04;;;;;;;6.47;3.00;;;18.10;99.90;;;;;;5051904;28;20437;-42
2023/07/19 00:42:31;;;;;;;5.63;3.25;;;18.10;99.90;;;;;;5052853;28;20127;-42
2023/07/19 00:44:59;;;;;;;7.10;2.97;;;18.10;99.90;;;;;;5061186;28;20045;-42
2023/07/19 00:47:26;;;;;;;6.35;2.80;;;18.00;99.90;;;;;;5072662;28;20531;-42
2023/07/19 00:49:53;;;;;;;6.80;3.05;;;18.00;99.90;;;;;;5067267;28;20496;-41
2023/07/19 00:52:20;;;;;;;5.20;2.60;;;18.10;99.90;;;;;;5051188;28;20045;-42
2023/07/19 00:54:47;;;;;;;4.05;2.63;;;18.00;99.90;;;;;;5049285;28;20056;-41
2023/07/19 00:57:13;;;;;;;7.35;3.35;;;18.00;99.90;;;;;;5059775;28;20515;-43
2023/07/19 00:59:41;;;;;;;3.58;2.38;;;18.00;99.90;;;;;;5057778;28;20502;-42
2023/07/19 01:02:09;;;;;;;6.28;2.88;;;18.00;99.90;;;;;;5070613;28;20079;-43
2023/07/19 01:04:36;;;;;;;6.45;3.25;;;18.00;99.90;;;;;;5072297;28;20048;-42
2023/07/19 01:07:03;;;;;;;5.05;2.78;;;18.00;99.90;;;;;;5069947;28;20484;-42
2023/07/19 01:09:30;;;;;;;4.80;2.50;;;18.00;99.90;;;;;;5061022;28;20088;-43
2023/07/19 01:11:57;;;;;;;4.90;2.42;;;18.00;99.90;;;;;;5056742;28;20048;-42
2023/07/19 01:14:24;;;;;;;5.85;2.85;;;18.00;99.90;;;;;;5056523;28;20389;-42
2023/07/19 01:16:51;;;;;;;6.13;2.95;;;18.00;99.90;;;;;;5050516;28;20072;-42
2023/07/19 01:19:19;;;;;;;5.63;2.60;;;18.00;99.90;;;;;;5050648;28;20048;-43
2023/07/19 01:21:46;;;;;;;7.00;3.03;;;17.90;99.90;;;;;;5050435;28;20107;-41
2023/07/19 01:24:15;;;;;;;6.45;2.90;;;17.90;99.90;;;;;;5049680;28;20084;-43
2023/07/19 01:26:41;;;;;;;6.25;2.78;;;17.90;99.90;;;;;;5063813;28;20068;-43
2023/07/19 01:29:08;;;;;;;5.30;2.75;;;17.90;99.90;;;;;;5072135;28;20133;-42
2023/07/19 01:31:35;;;;;;;4.30;2.50;;;17.90;99.90;;;;;;5069187;28;20451;-42
2023/07/19 01:34:02;;;;;;;6.45;2.72;;;17.90;99.90;;;;;;5051030;28;20081;-42
2023/07/19 01:36:29;;;;;;;6.20;2.85;;;17.90;99.90;;;;;;5052112;28;20049;-42
2023/07/19 01:38:55;;;;;;;8.25;3.10;;;17.90;99.90;;;;;;5051861;28;20481;-43
2023/07/19 01:41:24;;;;;;;6.72;3.05;;;17.90;99.90;;;;;;5064948;28;20056;-43
2023/07/19 01:43:51;;;;;;;8.73;2.85;;;17.90;99.90;;;;;;5071676;28;20063;-43
2023/07/19 01:46:18;;;;;;;6.47;3.15;;;17.90;99.90;;;;;;5071170;28;20094;-42
2023/07/19 01:48:45;;;;;;;5.57;3.10;;;17.90;99.90;;;;;;5052062;28;20084;-42
2023/07/19 01:51:12;;;;;;;5.45;3.22;;;17.80;99.90;;;;;;5066256;28;20052;-42
2023/07/19 01:53:38;;;;;;;5.72;2.80;;;17.80;99.90;;;;;;5070781;28;20057;-43
2023/07/19 01:56:05;;;;;;;7.50;3.08;;;17.80;99.90;;;;;;5063829;28;20163;-42
2023/07/19 01:58:34;;;;;;;4.82;2.95;;;17.90;99.90;;;;;;5057273;28;20051;-43
2023/07/19 02:01:01;;;;;;;7.15;3.45;;;17.80;99.90;;;;;;5056457;28;20508;-42
2023/07/19 02:03:27;;;;;;;5.55;2.63;;;17.80;99.90;;;;;;5071755;28;20079;-42
2023/07/19 02:05:58;;;;;;;4.63;2.65;;;17.80;99.90;;;;;;5068697;28;20048;-42
2023/07/19 02:08:25;;;;;;;3.80;2.70;;;17.80;99.90;;;;;;5071726;28;20444;-42
2023/07/19 02:10:52;;;;;;;4.43;2.45;;;17.80;99.90;;;;;;5066878;28;20061;-41
2023/07/19 02:13:19;;;;;;;7.13;3.25;;;17.80;99.90;;;;;;5070196;28;20403;-42
2023/07/19 02:15:47;;;;;;;4.97;2.88;;;17.80;99.90;;;;;;5070126;28;20056;-43
2023/07/19 02:18:14;;;;;;;6.38;3.08;;;17.80;99.90;;;;;;5070686;28;20382;-42
2023/07/19 02:20:45;;;;;;;7.50;3.53;;;17.80;99.90;;;;;;5058221;28;20052;-41
2023/07/19 02:23:12;;;;;;;6.85;3.58;;;17.80;99.90;;;;;;5052710;28;20284;-42
2023/07/19 02:25:41;;;;;;;8.43;3.67;;;17.80;99.90;;;;;;5051420;28;20049;-42
2023/07/19 02:28:09;;;;;;;8.02;3.60;;;17.80;99.90;;;;;;5051226;28;20068;-43
2023/07/19 02:30:36;;;;;;;5.45;3.03;;;17.80;99.90;;;;;;5061460;28;20118;-42
2023/07/19 02:33:04;;;;;;;7.30;3.83;;;17.80;99.90;;;;;;5069871;28;20459;-42
2023/07/19 02:35:31;;;;;;;7.15;3.40;;;17.80;99.90;;;;;;5053531;28;20048;-41
2023/07/19 02:37:57;;;;;;;7.05;4.07;;;17.70;99.90;;;;;;5037016;28;20444;-42
2023/07/19 02:40:24;;;;;;;7.15;3.95;;;17.70;99.90;;;;;;5050170;28;20076;-42
2023/07/19 02:42:51;;;;;;;7.28;4.60;;;17.70;99.90;;;;;;5051560;28;20049;-42
2023/07/19 02:45:18;;;;;;;5.95;3.10;;;17.70;99.90;;;;;;5053976;28;20060;-42
2023/07/19 02:47:45;;;;;;;7.93;3.97;;;17.70;99.90;;;;;;5055049;28;20408;-42
2023/07/19 02:50:13;;;;;;;6.60;4.30;;;17.70;99.90;;;;;;5055540;28;20137;-42
2023/07/19 02:52:40;;;;;;;10.43;4.47;;;17.70;99.90;;;;;;5054918;28;20045;-42
2023/07/19 02:55:08;;;;;;;8.68;4.70;;;17.70;99.90;;;;;;5053746;28;20060;-43
2023/07/19 02:57:35;;;;;;;7.63;3.70;;;17.70;99.90;;;;;;5052468;28;20060;-42
2023/07/19 03:00:02;;;;;;;6.60;4.22;;;17.60;99.90;;;;;;5061354;28;20052;-42
2023/07/19 03:02:29;;;;;;;7.55;3.58;;;17.60;99.90;;;;;;5053592;28;20396;-42
2023/07/19 03:04:56;;;;;;;6.53;3.63;;;17.60;99.90;;;;;;5053661;28;20453;-42
2023/07/19 03:07:25;;;;;;;9.27;4.63;;;17.60;99.90;;;;;;5052261;28;20049;-42
2023/07/19 03:09:52;;;;;;;8.13;4.75;;;17.60;99.90;;;;;;5054491;28;20088;-43
2023/07/19 03:12:19;;;;;;;9.13;4.80;;;17.60;99.90;;;;;;5053185;28;20053;-42
2023/07/19 03:14:45;;;;;;;10.00;4.80;;;17.60;99.90;;;;;;5054322;28;20053;-42
2023/07/19 03:17:12;;;;;;;7.63;5.15;;;17.50;99.90;;;;;;5054335;28;20456;-42
2023/07/19 03:19:39;;;;;;;8.52;4.55;;;17.50;99.90;;;;;;5049413;28;20466;-43
2023/07/19 03:22:06;;;;;;;7.20;4.40;;;17.50;99.90;;;;;;5060983;28;20408;-42
2023/07/19 03:24:34;;;;;;;7.95;4.13;;;17.50;99.90;;;;;;5052865;28;20041;-42
2023/07/19 03:27:01;;;;;;;8.07;5.60;;;17.50;99.90;;;;;;5052771;28;20489;-43
2023/07/19 03:29:28;;;;;;;7.82;4.93;;;17.50;99.90;;;;;;5070858;28;20141;-42
2023/07/19 03:31:55;;;;;;;8.40;4.53;;;17.60;99.90;;;;;;5065762;28;20045;-42
2023/07/19 03:34:22;;;;;;;7.63;4.30;;;17.50;99.90;;;;;;5065485;28;20052;-42
2023/07/19 03:36:48;;;;;;;6.20;4.38;;;17.50;99.90;;;;;;5055674;28;20056;-42
2023/07/19 03:39:15;;;;;;;8.27;4.93;;;17.50;99.90;;;;;;5053361;28;20174;-42
2023/07/19 03:41:43;;;;;;;8.73;5.00;;;17.50;99.90;;;;;;5056283;28;20523;-42
2023/07/19 03:44:10;;;;;;;8.90;5.60;;;17.50;99.90;;;;;;5073917;28;20052;-42
2023/07/19 03:46:37;;;;;;;7.50;4.97;;;17.50;99.90;;;;;;5068142;28;20497;-42
2023/07/19 03:49:04;;;;;;;15.00;5.13;;;17.50;99.90;;;;;;5059666;28;20056;-42
2023/07/19 03:51:31;;;;;;;9.07;4.22;;;17.50;99.90;;;;;;5051619;28;20126;-42
2023/07/19 03:53:58;;;;;;;8.68;5.10;;;17.50;99.90;;;;;;5048369;28;20061;-40
2023/07/19 03:56:25;;;;;;;8.85;5.50;;;17.50;99.90;;;;;;5045522;28;20485;-41
2023/07/19 03:58:53;;;;;;;10.57;5.78;;;17.50;99.90;;;;;;5055425;28;20484;-41
2023/07/19 04:01:20;;;;;;;8.48;4.75;;;17.50;99.90;;;;;;5050835;28;20059;-41
2023/07/19 04:03:47;;;;;;;10.25;6.40;;;17.50;99.90;;;;;;5051642;28;20072;-41
2023/07/19 04:06:14;;;;;;;8.13;4.85;;;17.50;99.90;;;;;;5051595;28;20053;-42
2023/07/19 04:08:41;;;;;;;10.88;5.65;;;17.50;99.90;;;;;;5053699;28;20397;-42
2023/07/19 04:11:07;;;;;;;6.47;4.50;;;17.50;99.90;;;;;;5049402;28;20057;-42
2023/07/19 04:13:34;;;;;;;10.15;5.53;;;17.50;99.90;;;;;;5049929;28;20493;-42
2023/07/19 04:16:03;;;;;;;13.00;5.18;;;17.50;99.90;;;;;;5051006;28;20053;-42
2023/07/19 04:18:29;;;;;;;7.85;5.72;;;17.50;99.90;;;;;;5052319;28;20053;-42
2023/07/19 04:20:56;;;;;;;8.38;5.80;;;17.50;99.90;;;;;;5052237;28;20118;-42
2023/07/19 04:23:23;;;;;;;12.57;5.05;;;17.50;99.90;;;;;;5052584;28;20040;-42
2023/07/19 04:25:50;;;;;;;10.90;5.20;;;17.50;99.90;;;;;;5052911;28;20051;-42
2023/07/19 04:28:17;;;;;;;8.38;5.00;;;17.50;99.90;;;;;;5050967;28;20107;-41
2023/07/19 04:30:45;;;;;;;11.40;5.82;;;17.50;99.90;;;;;;5050677;28;20052;-42
2023/07/19 04:33:13;;;;;;;11.63;6.00;;;17.50;99.90;;;;;;5052550;28;20574;-41
2023/07/19 04:35:40;;;;;;;12.23;7.18;;;17.60;99.90;;;;;;5051434;28;20115;-41
2023/07/19 04:38:07;;;;;;;11.95;6.47;;;17.60;99.90;;;;;;5058968;28;20049;-42
2023/07/19 04:40:34;;;;;;;11.48;6.97;;;17.60;99.90;;;;;;5050509;28;20045;-41
2023/07/19 04:43:01;;;;;;;13.57;7.38;;;17.60;99.90;;;;;;5051845;28;20049;-42
2023/07/19 04:45:30;;;;;;;10.35;6.40;;;17.60;99.90;;;;;;5052978;28;20501;-41
2023/07/19 04:47:56;;;;;;;9.73;5.90;;;17.60;99.90;;;;;;5052111;28;20049;-43
2023/07/19 04:50:25;;;;;;;7.80;5.57;;;17.60;99.90;;;;;;5050954;28;20053;-42
2023/07/19 04:52:53;;;;;;;11.98;6.85;;;17.60;99.90;;;;;;5051175;28;20045;-42
2023/07/19 04:55:20;;;;;;;12.43;6.70;;;17.60;99.90;;;;;;5052563;28;20048;-41
2023/07/19 04:57:47;;;;;;;9.38;6.35;;;17.70;99.90;;;;;;5060102;28;20102;-42
2023/07/19 05:00:15;;;;;;;10.82;7.30;;;17.70;99.90;;;;;;5064739;28;20056;-42
2023/07/19 05:02:42;;;;;;;12.35;6.53;;;17.70;99.90;;;;;;5038426;28;20480;-42
2023/07/19 05:05:12;;;;;;;10.95;6.47;;;17.70;99.90;;;;;;5053980;28;20563;-41
2023/07/19 05:07:40;;;;;;;10.23;5.38;;;17.70;99.90;;;;;;5051331;28;20488;-42
2023/07/19 05:10:08;;;;;;;10.70;6.55;;;17.70;99.90;;;;;;5051071;28;20546;-41
2023/07/19 05:12:35;;;;;;;10.43;5.45;;;17.70;99.90;;;;;;5052334;28;20056;-41
2023/07/19 05:15:02;;;;;;;11.20;5.72;;;17.70;99.90;;;;;;5052453;28;20504;-42
2023/07/19 05:17:29;;;;;;;10.45;5.43;;;17.70;99.90;;;;;;5061501;28;20056;-42
2023/07/19 05:19:56;;;;;;;9.10;5.22;;;17.70;99.90;;;;;;5065586;28;20397;-42
2023/07/19 05:22:23;;;;;;;10.20;5.65;;;17.70;99.90;;;;;;5051670;28;20408;-42
2023/07/19 05:24:51;;;;;;;10.38;4.47;;;17.70;99.90;;;;;;5052112;28;20111;-43
2023/07/19 05:27:18;;;;;;;13.02;5.72;;;17.70;99.90;;;;;;5052317;28;20280;-42
2023/07/19 05:29:45;;;;;;;10.38;5.35;;;17.80;99.90;;;;;;5057882;28;20105;-43
2023/07/19 05:32:11;;;;;;;7.40;4.55;;;17.80;99.90;;;;;;5068803;28;20106;-42
2023/07/19 05:34:38;;;;;;;12.20;5.70;;;17.80;99.90;;;;;;5070385;28;20102;-42
2023/07/19 05:37:06;;;;;;;11.57;5.70;;;17.80;99.90;;;;;;5071018;28;20527;-43
2023/07/19 05:39:34;;;;;;;8.27;4.78;;;17.80;99.90;;;;;;5067608;28;20048;-43
2023/07/19 05:42:02;;;;;;;9.00;4.90;;;17.80;99.90;;;;;;5070316;28;20052;-43
2023/07/19 05:44:28;;;;;;;10.77;4.72;;;17.80;99.90;;;;;;5068612;28;20186;-43
2023/07/19 05:46:55;;;;;;;10.48;4.97;;;17.80;99.90;;;;;;5071908;28;20501;-42
2023/07/19 05:49:22;;;;;;;7.25;4.57;;;17.90;99.90;;;;;;5069224;28;20057;-42
2023/07/19 05:51:50;;;;;;;9.35;4.60;;;17.90;99.90;;;;;;5070841;28;20060;-41
2023/07/19 05:54:17;;;;;;;11.13;5.28;;;17.90;99.90;;;;;;5071905;28;20052;-42
2023/07/19 05:56:43;;;;;;;11.85;4.82;;;17.90;99.90;;;;;;5062645;28;20489;-43
2023/07/19 05:59:12;;;;;;;7.82;3.95;;;17.90;99.90;;;;;;5060957;28;20084;-41
2023/07/19 06:01:39;;;;;;;10.02;5.13;;;17.90;99.90;;;;;;5071930;28;20048;-42
2023/07/19 06:04:06;;;;;;;6.78;4.10;;;17.90;99.90;;;;;;5054118;28;20045;-42
2023/07/19 06:06:34;;;;;;;8.05;4.85;;;17.90;99.90;;;;;;5051426;28;20416;-43
2023/07/19 06:09:02;;;;;;;6.03;3.72;;;17.90;99.90;;;;;;5049176;28;20045;-42
2023/07/19 06:11:29;;;;;;;8.43;3.90;;;17.90;99.90;;;;;;5066326;28;20051;-42
2023/07/19 06:13:56;;;;;;;7.05;4.68;;;17.90;99.90;;;;;;5070944;28;20094;-42
2023/07/19 06:16:25;;;;;;;9.75;4.30;;;17.90;99.90;;;;;;5070162;28;20114;-41
2023/07/19 06:18:52;;;;;;;9.75;4.72;;;18.00;99.90;;;;;;5060374;28;20053;-42
2023/07/19 06:21:19;;;;;;;8.50;4.38;;;18.00;99.90;;;;;;5053898;28;20405;-42
2023/07/19 06:23:46;;;;;;;9.52;4.85;;;18.00;99.90;;;;;;5054211;28;20056;-42
2023/07/19 06:26:13;;;;;;;11.55;4.85;;;18.00;99.90;;;;;;5054423;28;20053;-42
2023/07/19 06:28:40;;;;;;;9.32;4.60;;;18.00;99.90;;;;;;5053681;28;20045;-42
2023/07/19 06:31:07;;;;;;;8.23;4.50;;;18.10;99.90;;;;;;5056035;28;20048;-41
2023/07/19 06:33:35;;;;;;;5.57;3.80;;;18.10;99.90;;;;;;5054859;28;20048;-42
2023/07/19 06:36:02;;;;;;;9.07;3.97;;;18.10;99.90;;;;;;5053869;28;20128;-40
2023/07/19 06:38:29;;;;;;;9.45;3.70;;;18.20;99.90;;;;;;5053615;28;20060;-42
2023/07/19 06:41:01;;;;;;;6.03;3.53;;;18.20;99.90;;;;;;5054289;28;20049;-42
2023/07/19 06:43:28;;;;;;;7.53;3.70;;;18.20;99.90;;;;;;5055267;28;20052;-42
2023/07/19 06:45:55;;;;;;;6.97;3.50;;;18.20;99.90;;;;;;5055730;28;20049;-42
2023/07/19 06:48:22;;;;;;;6.30;3.58;;;18.20;99.90;;;;;;5066914;28;20110;-42
2023/07/19 06:50:50;;;;;;;6.22;3.22;;;18.20;99.90;;;;;;5064589;28;20654;-42
2023/07/19 06:53:17;;;;;;;10.82;3.75;;;18.30;99.90;;;;;;5075293;28;20040;-42
2023/07/19 06:55:44;;;;;;;7.25;3.67;;;18.30;99.90;;;;;;5055852;28;20057;-42
2023/07/19 06:58:11;;;;;;;7.70;3.80;;;18.30;99.90;;;;;;5050755;28;20044;-42
2023/07/19 07:00:37;;;;;;;7.60;3.20;;;18.30;99.90;;;;;;5056211;28;20048;-42
2023/07/19 07:03:04;;;;;;;8.20;3.45;;;18.30;99.90;;;;;;5054053;28;20063;-42
2023/07/19 07:05:32;;;;;;;6.63;3.28;;;18.40;99.90;;;;;;5073145;28;20067;-41
2023/07/19 07:08:00;;;;;;;6.65;3.00;;;18.40;99.90;;;;;;5071904;28;20057;-41
2023/07/19 07:10:27;;;;;;;7.15;2.97;;;18.50;99.90;;;;;;5071731;28;20060;-41
2023/07/19 07:12:53;;;;;;;5.50;2.83;;;18.50;99.90;;;;;;5072187;28;20048;-41
2023/07/19 07:15:20;;;;;;;6.93;2.90;;;18.50;99.90;;;;;;5042121;28;20049;-41
2023/07/19 07:17:48;;;;;;;5.35;2.58;;;18.50;99.90;;;;;;5051189;28;20570;-42
2023/07/19 07:20:15;;;;;;;6.25;2.70;;;18.50;99.90;;;;;;5052952;28;20436;-42
2023/07/19 07:22:42;;;;;;;7.35;2.78;;;18.50;99.90;;;;;;5056618;28;20075;-42
2023/07/19 07:25:10;;;;;;;4.75;2.70;;;18.50;99.90;;;;;;5071421;28;20044;-42
2023/07/19 07:27:37;;;;;;;5.93;2.55;;;18.50;99.90;;;;;;5070378;28;20048;-42
2023/07/19 07:30:05;;;;;;;6.22;2.90;;;18.60;99.90;;;;;;5070268;28;20052;-42
2023/07/19 07:32:33;;;;;;;6.72;2.58;;;18.50;99.90;;;;;;5051018;28;20390;-42
2023/07/19 07:35:00;;;;;;;7.38;2.80;;;18.60;99.90;;;;;;5049531;28;20463;-41
2023/07/19 07:37:27;;;;;;;7.65;3.08;;;18.50;99.90;;;;;;5057654;28;20040;-42
2023/07/19 07:39:54;;;;;;;7.78;2.90;;;18.50;99.90;;;;;;5068265;28;20044;-41
2023/07/19 07:42:23;;;;;;;8.30;3.08;;;18.50;99.90;;;;;;5072939;28;20053;-42
2023/07/19 07:44:50;;;;;;;5.50;3.25;;;18.50;99.90;;;;;;5060097;28;20149;-43
2023/07/19 07:47:17;;;;;;;5.38;2.58;;;18.50;99.90;;;;;;5054825;28;20377;-42
2023/07/19 07:49:46;;;;;;;8.18;2.90;;;18.50;99.90;;;;;;5070986;28;20049;-42
2023/07/19 07:52:15;;;;;;;9.43;2.80;;;18.50;99.90;;;;;;5060970;28;20044;-43
2023/07/19 07:54:42;;;;;;;7.35;3.10;;;18.60;99.90;;;;;;5051507;28;20056;-43
2023/07/19 07:57:08;;;;;;;4.88;2.70;;;18.60;99.90;;;;;;5052221;28;20477;-42
2023/07/19 07:59:37;;;;;;;7.45;2.67;;;18.70;99.90;;;;;;5050314;28;20057;-42
2023/07/19 08:02:03;;;;;;;8.27;2.58;;;18.60;99.90;;;;;;5051472;28;20099;-43
2023/07/19 08:04:30;;;;;;;7.10;2.10;;;18.70;99.90;;;;;;5064110;28;20053;-42
2023/07/19 08:06:57;;;;;;;7.10;2.40;;;18.70;99.90;;;;;;5072188;28;20059;-42
2023/07/19 08:09:24;;;;;;;4.38;1.90;;;18.70;99.90;;;;;;5054102;28;20061;-42
2023/07/19 08:11:51;;;;;;;5.00;2.10;;;18.60;99.90;;;;;;5062168;28;20075;-42
2023/07/19 08:14:19;;;;;;;6.38;2.35;;;18.70;99.90;;;;;;5071453;28;20044;-42
2023/07/19 08:16:50;;;;;;;6.90;2.22;;;18.70;99.90;;;;;;5048725;28;20061;-42
2023/07/19 08:19:16;;;;;;;4.60;2.08;;;18.70;99.90;;;;;;5050808;28;20049;-41
2023/07/19 08:21:43;;;;;;;5.50;2.30;;;18.90;99.90;;;;;;5051740;28;20048;-43
2023/07/19 08:24:11;;;;;;;6.05;2.00;;;18.90;99.90;;;;;;5050433;28;20508;-41
2023/07/19 08:26:38;;;;;;;6.07;2.00;;;19.00;99.90;;;;;;5062649;28;20054;-42
2023/07/19 08:29:05;;;;;;;4.97;2.00;;;19.10;99.90;;;;;;5067983;28;20048;-42
2023/07/19 08:31:31;;;;;;;6.18;1.90;;;19.30;99.90;;;;;;5046547;28;20049;-41
2023/07/19 08:34:00;;;;;;;4.43;1.70;;;19.40;99.90;;;;;;5052674;28;20485;-42
2023/07/19 08:36:27;;;;;;;4.30;1.80;;;19.60;99.90;;;;;;5051253;28;20048;-42
2023/07/19 08:38:54;;;;;;;4.88;1.98;;;19.70;99.90;;;;;;5050156;28;20057;-42
2023/07/19 08:41:22;;;;;;;7.35;1.90;;;19.90;99.90;;;;;;5051236;28;20075;-42
2023/07/19 08:43:49;;;;;;;4.57;1.67;;;19.90;99.90;;;;;;5045485;28;20120;-42
2023/07/19 08:46:16;;;;;;;6.82;2.65;;;20.00;99.90;;;;;;5048896;28;20060;-42
2023/07/19 08:48:44;;;;;;;7.18;2.10;;;20.10;99.90;;;;;;5050817;28;20052;-42
2023/07/19 08:51:12;;;;;;;4.45;1.80;;;20.10;99.90;;;;;;5051072;28;20053;-42
2023/07/19 08:53:39;;;;;;;3.60;1.88;;;20.10;99.90;;;;;;5045461;28;20053;-43
2023/07/19 08:56:06;;;;;;;4.60;1.80;;;20.10;99.90;;;;;;5038019;28;20053;-42
2023/07/19 08:58:35;;;;;;;2.75;1.60;;;20.10;99.90;;;;;;5053069;28;20111;-42
2023/07/19 09:01:02;;;;;;;6.43;2.50;;;20.20;99.90;;;;;;5070958;28;20048;-40
2023/07/19 09:03:29;;;;;;;4.38;1.70;;;20.20;99.90;;;;;;5070855;28;20087;-41
2023/07/19 09:05:55;;;;;;;6.97;1.90;;;20.20;99.90;;;;;;5069468;28;20555;-42
2023/07/19 09:08:28;;;;;;;7.20;2.15;;;20.30;99.90;;;;;;5070791;28;20052;-42
2023/07/19 09:10:55;;;;;;;5.05;1.90;;;20.30;99.90;;;;;;5063518;28;20114;-42
2023/07/19 09:13:22;;;;;;;4.32;1.63;;;20.40;99.90;;;;;;5049599;28;20516;-41
2023/07/19 09:15:49;;;;;;;5.63;1.52;;;20.50;99.90;;;;;;5050153;28;20530;-42
2023/07/19 09:18:17;;;;;;;6.80;2.28;;;20.60;99.90;;;;;;5051022;28;20095;-42
2023/07/19 09:20:45;;;;;;;4.93;1.70;;;20.70;99.90;;;;;;5049638;28;20092;-43
2023/07/19 09:23:12;;;;;;;7.53;1.83;;;20.80;99.90;;;;;;5050996;28;20053;-41
2023/07/19 09:25:52;;;;;;;5.13;1.92;;;20.90;99.90;;;;;;5050694;28;20132;-42
2023/07/19 09:28:21;;;;;;;5.07;2.00;;;21.00;99.90;;;;;;5049776;28;20084;-42
2023/07/19 09:30:54;;;;;;;6.75;1.70;;;21.10;99.90;;;;;;5050328;28;20136;-42
2023/07/19 09:33:21;;;;;;;6.22;2.05;;;21.30;99.90;;;;;;5050545;28;20086;-43
2023/07/19 09:35:48;;;;;;;5.20;1.90;;;21.30;99.90;;;;;;5049135;28;20115;-42
2023/07/19 09:38:15;;;;;;;6.40;2.05;;;21.30;99.90;;;;;;5050526;28;20134;-43
2023/07/19 09:40:42;;;;;;;4.45;1.92;;;21.30;99.90;;;;;;5050315;28;20076;-42
2023/07/19 09:43:10;;;;;;;7.43;2.05;;;21.30;99.90;;;;;;5056702;28;20084;-43
2023/07/19 09:45:37;;;;;;;6.82;1.98;;;21.30;99.90;;;;;;5065857;28;20048;-42
2023/07/19 09:48:04;;;;;;;7.40;2.10;;;21.30;99.90;;;;;;5049506;28;20456;-42
2023/07/19 09:50:31;;;;;;;6.53;2.15;;;21.20;99.90;;;;;;5050526;28;20198;-42
2023/07/19 09:52:58;;;;;;;4.50;1.85;;;21.20;99.90;;;;;;5049028;28;20134;-42
2023/07/19 09:55:25;;;;;;;5.35;1.90;;;21.30;99.90;;;;;;5049253;28;20044;-43
2023/07/19 09:57:51;;;;;;;5.38;2.17;;;21.40;99.90;;;;;;5061631;28;20121;-42
2023/07/19 10:00:20;;;;;;;3.90;1.75;;;21.50;99.90;;;;;;5068920;28;20048;-43
2023/07/19 10:02:47;;;;;;;3.85;2.08;;;21.60;99.90;;;;;;5051330;28;20053;-43
2023/07/19 10:05:14;;;;;;;7.68;2.65;;;21.70;99.90;;;;;;5051156;28;20106;-43
2023/07/19 10:07:42;;;;;;;4.65;2.00;;;21.80;99.90;;;;;;5059827;28;20049;-42
2023/07/19 10:10:11;;;;;;;7.93;2.15;;;21.90;99.90;;;;;;5064407;28;20479;-42
2023/07/19 10:12:39;;;;;;;5.32;1.60;;;21.90;99.90;;;;;;5070104;28;20067;-42
2023/07/19 10:15:07;;;;;;;4.75;1.45;;;21.90;99.90;;;;;;5065540;28;20060;-43
2023/07/19 10:17:41;;;;;;;3.05;1.70;;;21.90;99.90;;;;;;5068885;28;20492;-42
2023/07/19 10:20:09;;;;;;;7.72;1.70;;;21.90;99.90;;;;;;5066730;28;20041;-43
2023/07/19 10:22:55;;;;;;;3.83;1.40;;;21.90;99.90;;;;;;5070094;28;20062;-42
2023/07/19 10:25:24;;;;;;;5.45;1.30;;;21.80;99.90;;;;;;5061462;28;20056;-42
2023/07/19 10:28:02;;;;;;;6.47;2.22;;;21.70;99.90;;;;;;5070121;28;20571;-43
2023/07/19 10:30:48;;;;;;;4.78;1.80;;;21.70;99.90;;;;;;5068553;28;20041;-42
2023/07/19 10:33:16;;;;;;;2.83;1.42;;;21.70;99.90;;;;;;5054394;28;20084;-42
2023/07/19 10:35:43;;;;;;;4.80;1.80;;;21.70;99.90;;;;;;5066640;28;20090;-43
2023/07/19 10:38:16;;;;;;;6.28;1.90;;;21.60;99.90;;;;;;5061987;28;20488;-42
2023/07/19 10:40:45;;;;;;;8.68;1.95;;;21.60;99.90;;;;;;5067599;28;20048;-42
2023/07/19 10:43:12;;;;;;;4.40;1.58;;;21.50;99.90;;;;;;5061677;28;20528;-42
2023/07/19 10:45:39;;;;;;;4.35;1.63;;;21.40;99.90;;;;;;5068987;28;20048;-42
2023/07/19 10:48:06;;;;;;;3.17;1.10;;;21.30;99.90;;;;;;5067420;28;20097;-43
2023/07/19 10:50:34;;;;;;;6.53;1.95;;;21.20;99.90;;;;;;5068686;28;20052;-42
2023/07/19 10:53:01;;;;;;;5.00;1.98;;;21.00;99.90;;;;;;5051349;28;20053;-42
2023/07/19 10:55:29;;;;;;;3.90;1.52;;;21.00;99.90;;;;;;5049934;28;20060;-43
2023/07/19 10:57:56;;;;;;;4.30;1.75;;;21.00;99.90;;;;;;5048288;28;20397;-42
2023/07/19 11:00:23;;;;;;;5.07;1.77;;;20.90;99.90;;;;;;5047397;28;20048;-42
2023/07/19 11:02:52;;;;;;;8.50;1.83;;;20.90;99.90;;;;;;5048804;28;20087;-42
2023/07/19 11:05:19;;;;;;;3.15;1.80;;;21.00;99.90;;;;;;5051612;28;20106;-42
2023/07/19 11:07:48;;;;;;;5.85;1.70;;;21.00;99.90;;;;;;5052617;28;20378;-43
2023/07/19 11:10:15;;;;;;;3.70;2.03;;;21.00;99.90;;;;;;5051981;28;20397;-43
2023/07/19 11:12:42;;;;;;;6.22;2.65;;;21.00;99.90;;;;;;5051658;28;20057;-42
2023/07/19 11:15:10;;;;;;;5.07;1.70;;;21.00;99.90;;;;;;5051348;28;20513;-43
2023/07/19 11:17:38;;;;;;;3.63;2.03;;;21.00;99.90;;;;;;5051986;28;20048;-43
2023/07/19 11:20:06;;;;;;;4.78;2.00;;;21.00;99.90;;;;;;5051573;28;20049;-43
2023/07/19 11:22:33;;;;;;;6.07;1.88;;;21.10;99.90;;;;;;5051686;28;20135;-43
2023/07/19 11:25:01;;;;;;;6.53;2.50;;;21.20;99.90;;;;;;5051300;28;20067;-42
2023/07/19 11:27:35;;;;;;;3.55;2.10;;;21.40;99.90;;;;;;5043767;28;20041;-42
2023/07/19 11:30:02;;;;;;;7.18;2.17;;;21.50;99.90;;;;;;5052170;28;20137;-41
2023/07/19 11:32:28;;;;;;;4.82;2.60;;;21.50;99.90;;;;;;5052381;28;20444;-41
2023/07/19 11:34:56;;;;;;;4.93;2.20;;;21.50;99.90;;;;;;5052388;28;20057;-41
2023/07/19 11:37:25;;;;;;;6.15;2.30;;;21.60;99.90;;;;;;5052366;28;20154;-43
2023/07/19 11:39:52;;;;;;;6.53;2.60;;;21.60;99.90;;;;;;5050066;28;20096;-41
2023/07/19 11:42:43;;;;;;;5.00;2.72;;;21.60;99.90;;;;;;5049496;28;20501;-42
2023/07/19 11:45:11;;;;;;;5.28;2.40;;;21.60;99.90;;;;;;5062407;28;20052;-42
2023/07/19 11:47:38;;;;;;;5.45;2.55;;;21.60;99.90;;;;;;5074337;28;20447;-41
2023/07/19 11:50:06;;;;;;;3.67;2.60;;;21.50;99.90;;;;;;5055311;28;20049;-42
2023/07/19 11:52:43;;;;;;;6.82;2.88;;;21.40;99.90;;;;;;5059781;28;20635;-42
2023/07/19 11:55:11;;;;;;;5.88;2.92;;;21.40;99.90;;;;;;5061631;28;20500;-42
2023/07/19 11:57:38;;;;;;;5.93;3.03;;;21.40;99.90;;;;;;5057957;28;20098;-41
2023/07/19 12:00:08;;;;;;;7.25;3.00;;;21.40;99.90;;;;;;5072056;28;20057;-42
2023/07/19 12:02:35;;;;;;;4.85;2.88;;;21.60;99.90;;;;;;5066829;28;20056;-42
2023/07/19 12:05:03;;;;;;;8.68;3.08;;;21.60;99.90;;;;;;5053772;28;20048;-42
2023/07/19 12:07:30;;;;;;;5.43;2.90;;;21.60;99.90;;;;;;5053573;28;20064;-42
2023/07/19 12:09:57;;;;;;;6.53;3.05;;;21.60;99.90;;;;;;5052433;28;20083;-42
2023/07/19 12:12:23;;;;;;;5.38;3.22;;;21.70;99.90;;;;;;5052176;28;20052;-43
2023/07/19 12:14:50;;;;;;;10.43;3.38;;;21.70;99.90;;;;;;5053433;28;20053;-42
2023/07/19 12:17:19;;;;;;;6.05;3.45;;;21.70;99.90;;;;;;5053275;28;20461;-42
2023/07/19 12:19:45;;;;;;;8.13;3.53;;;21.80;99.90;;;;;;5053461;28;20052;-42
2023/07/19 12:22:12;;;;;;;5.60;2.85;;;21.80;99.90;;;;;;5053312;28;20063;-43
2023/07/19 12:24:39;;;;;;;7.53;2.88;;;21.80;99.90;;;;;;5052232;28;20106;-42
2023/07/19 12:27:06;;;;;;;7.25;2.75;;;21.80;99.90;;;;;;5052017;28;20060;-42
2023/07/19 12:29:33;;;;;;;7.03;2.30;;;21.90;99.90;;;;;;5052270;28;20492;-42
2023/07/19 12:32:00;;;;;;;6.72;2.10;;;21.90;99.90;;;;;;5053349;28;20056;-42
2023/07/19 12:34:28;;;;;;;5.13;1.90;;;21.90;99.90;;;;;;5053231;28;20071;-43
2023/07/19 12:36:55;;;;;;;5.80;2.20;;;21.90;99.90;;;;;;5052952;28;20493;-43
2023/07/19 12:39:24;;;;;;;5.68;2.20;;;21.90;99.90;;;;;;5052903;28;20060;-42
2023/07/19 12:41:52;;;;;;;7.75;3.17;;;22.00;99.90;;;;;;5067656;28;20484;-43
2023/07/19 12:44:19;;;;;;;8.50;3.20;;;22.10;99.90;;;;;;5072311;28;20336;-43
2023/07/19 12:46:48;;;;;;;6.93;3.20;;;22.10;99.90;;;;;;5072904;28;20072;-42